sensor_id;sensor_type;location;lat;lon;timestamp;pressure;altitude;pressure_sealevel;temperature;humidity
78673;BME280;67988;60.086;30.354;2023-02-28T00:00:14;101009.25;;;-0.14;90.04
78673;BME280;67988;60.086;30.354;2023-02-28T00:02:42;100997.81;;;-0.10;89.90
78673;BME280;67988;60.086;30.354;2023-02-28T00:05:11;100981.19;;;-0.07;90.09
78673;BME280;67988;60.086;30.354;2023-02-28T00:07:39;100987.31;;;-0.08;89.97
78673;BME280;67988;60.086;30.354;2023-02-28T00:10:10;100980.34;;;-0.09;90.08
78673;BME280;67988;60.086;30.354;2023-02-28T00:12:38;100967.06;;;-0.02;89.92
78673;BME280;67988;60.086;30.354;2023-02-28T00:15:07;100980.34;;;-0.09;90.05
78673;BME280;67988;60.086;30.354;2023-02-28T00:17:35;100984.69;;;-0.08;90.04
78673;BME280;67988;60.086;30.354;2023-02-28T00:20:03;100996.84;;;-0.06;89.95
78673;BME280;67988;60.086;30.354;2023-02-28T00:22:34;100975.91;;;-0.06;90.01
78673;BME280;67988;60.086;30.354;2023-02-28T00:25:01;100949.28;;;0.10;89.82
78673;BME280;67988;60.086;30.354;2023-02-28T00:27:30;100969.38;;;0.08;89.67
78673;BME280;67988;60.086;30.354;2023-02-28T00:29:57;100956.25;;;0.09;89.63
78673;BME280;67988;60.086;30.354;2023-02-28T00:32:24;100992.75;;;0.14;89.27
78673;BME280;67988;60.086;30.354;2023-02-28T00:34:51;100958.88;;;0.09;89.46
78673;BME280;67988;60.086;30.354;2023-02-28T00:37:18;100935.22;;;0.12;89.55
78673;BME280;67988;60.086;30.354;2023-02-28T00:39:45;100935.19;;;0.14;89.29
78673;BME280;67988;60.086;30.354;2023-02-28T00:42:12;100930.63;;;0.20;88.91
78673;BME280;67988;60.086;30.354;2023-02-28T00:44:40;100936.91;;;0.15;89.00
78673;BME280;67988;60.086;30.354;2023-02-28T00:47:07;100941.16;;;0.17;88.97
78673;BME280;67988;60.086;30.354;2023-02-28T00:49:34;100940.97;;;0.23;88.68
78673;BME280;67988;60.086;30.354;2023-02-28T00:52:01;100961.16;;;0.20;88.68
78673;BME280;67988;60.086;30.354;2023-02-28T00:54:29;100940.88;;;0.26;88.51
78673;BME280;67988;60.086;30.354;2023-02-28T00:56:56;100945.41;;;0.21;88.64
78673;BME280;67988;60.086;30.354;2023-02-28T00:59:24;100941.84;;;0.24;88.17
78673;BME280;67988;60.086;30.354;2023-02-28T01:01:52;100920.84;;;0.25;88.26
78673;BME280;67988;60.086;30.354;2023-02-28T01:04:21;100947.78;;;0.29;88.03
78673;BME280;67988;60.086;30.354;2023-02-28T01:06:48;100896.25;;;0.31;88.02
78673;BME280;67988;60.086;30.354;2023-02-28T01:09:15;100899.81;;;0.28;87.94
78673;BME280;67988;60.086;30.354;2023-02-28T01:11:42;100909.06;;;0.38;87.84
78673;BME280;67988;60.086;30.354;2023-02-28T01:14:12;100935.59;;;0.28;87.70
78673;BME280;67988;60.086;30.354;2023-02-28T01:16:40;100885.81;;;0.29;87.83
78673;BME280;67988;60.086;30.354;2023-02-28T01:19:08;100921.41;;;0.35;87.68
78673;BME280;67988;60.086;30.354;2023-02-28T01:21:37;100890.69;;;0.40;87.41
78673;BME280;67988;60.086;30.354;2023-02-28T01:24:05;100847.81;;;0.44;87.36
78673;BME280;67988;60.086;30.354;2023-02-28T01:26:35;100891.69;;;0.37;87.29
78673;BME280;67988;60.086;30.354;2023-02-28T01:29:02;100880.75;;;0.50;86.96
78673;BME280;67988;60.086;30.354;2023-02-28T01:31:29;100887.13;;;0.43;86.90
78673;BME280;67988;60.086;30.354;2023-02-28T01:33:56;100900.81;;;0.51;86.90
78673;BME280;67988;60.086;30.354;2023-02-28T01:36:29;100869.88;;;0.37;86.70
78673;BME280;67988;60.086;30.354;2023-02-28T01:38:56;100899.03;;;0.51;86.74
78673;BME280;67988;60.086;30.354;2023-02-28T01:41:24;100859.09;;;0.46;86.81
78673;BME280;67988;60.086;30.354;2023-02-28T01:43:56;100861.63;;;0.49;86.78
78673;BME280;67988;60.086;30.354;2023-02-28T01:46:24;100844.06;;;0.51;86.67
78673;BME280;67988;60.086;30.354;2023-02-28T01:48:56;100889.41;;;0.53;86.88
78673;BME280;67988;60.086;30.354;2023-02-28T01:51:31;100865.91;;;0.50;86.74
78673;BME280;67988;60.086;30.354;2023-02-28T01:54:02;100858.03;;;0.52;86.54
78673;BME280;67988;60.086;30.354;2023-02-28T01:56:33;100848.38;;;0.54;86.29
78673;BME280;67988;60.086;30.354;2023-02-28T01:59:04;100861.28;;;0.58;86.13
78673;BME280;67988;60.086;30.354;2023-02-28T02:01:31;100864.06;;;0.54;86.32
78673;BME280;67988;60.086;30.354;2023-02-28T02:04:02;100857.84;;;0.56;86.21
78673;BME280;67988;60.086;30.354;2023-02-28T02:06:38;100861.06;;;0.64;85.92
78673;BME280;67988;60.086;30.354;2023-02-28T02:09:09;100838.47;;;0.62;85.78
78673;BME280;67988;60.086;30.354;2023-02-28T02:11:38;100842.78;;;0.63;85.67
78673;BME280;67988;60.086;30.354;2023-02-28T02:14:31;100859.25;;;0.66;85.57
78673;BME280;67988;60.086;30.354;2023-02-28T02:17:16;100831.38;;;0.65;85.69
78673;BME280;67988;60.086;30.354;2023-02-28T02:23:23;100831.47;;;0.62;85.68
78673;BME280;67988;60.086;30.354;2023-02-28T02:25:56;100836.66;;;0.64;85.66
78673;BME280;67988;60.086;30.354;2023-02-28T02:34:42;100851.25;;;0.71;85.21
78673;BME280;67988;60.086;30.354;2023-02-28T02:37:24;100836.53;;;0.67;85.37
78673;BME280;67988;60.086;30.354;2023-02-28T02:40:03;100828.81;;;0.64;85.33
78673;BME280;67988;60.086;30.354;2023-02-28T02:42:40;100809.00;;;0.55;85.08
78673;BME280;67988;60.086;30.354;2023-02-28T02:45:12;100830.00;;;0.78;85.00
78673;BME280;67988;60.086;30.354;2023-02-28T02:47:43;100831.03;;;0.74;85.12
78673;BME280;67988;60.086;30.354;2023-02-28T02:50:16;100828.28;;;0.77;84.70
78673;BME280;67988;60.086;30.354;2023-02-28T02:52:52;100826.28;;;0.86;84.47
78673;BME280;67988;60.086;30.354;2023-02-28T02:55:22;100778.78;;;0.47;84.71
78673;BME280;67988;60.086;30.354;2023-02-28T02:57:52;100803.53;;;0.63;85.05
78673;BME280;67988;60.086;30.354;2023-02-28T03:00:24;100798.75;;;0.74;84.84
78673;BME280;67988;60.086;30.354;2023-02-28T03:02:54;100785.78;;;0.71;84.53
78673;BME280;67988;60.086;30.354;2023-02-28T03:05:25;100803.44;;;0.89;84.13
78673;BME280;67988;60.086;30.354;2023-02-28T03:07:54;100792.16;;;0.87;83.97
78673;BME280;67988;60.086;30.354;2023-02-28T03:10:36;100773.50;;;0.71;84.19
78673;BME280;67988;60.086;30.354;2023-02-28T03:13:18;100793.84;;;0.65;84.44
78673;BME280;67988;60.086;30.354;2023-02-28T03:15:59;100796.13;;;0.74;84.31
78673;BME280;67988;60.086;30.354;2023-02-28T03:18:38;100794.16;;;0.80;84.17
78673;BME280;67988;60.086;30.354;2023-02-28T03:21:14;100785.31;;;0.83;83.87
78673;BME280;67988;60.086;30.354;2023-02-28T03:23:50;100788.28;;;0.74;84.06
78673;BME280;67988;60.086;30.354;2023-02-28T03:26:22;100783.94;;;0.73;83.96
78673;BME280;67988;60.086;30.354;2023-02-28T03:28:53;100773.88;;;0.86;83.42
78673;BME280;67988;60.086;30.354;2023-02-28T03:31:27;100782.63;;;0.84;83.50
78673;BME280;67988;60.086;30.354;2023-02-28T03:33:59;100779.28;;;0.81;83.58
78673;BME280;67988;60.086;30.354;2023-02-28T03:36:32;100771.25;;;0.86;83.34
78673;BME280;67988;60.086;30.354;2023-02-28T03:39:04;100734.63;;;0.61;83.05
78673;BME280;67988;60.086;30.354;2023-02-28T03:41:38;100776.31;;;0.90;82.78
78673;BME280;67988;60.086;30.354;2023-02-28T03:44:11;100774.84;;;0.83;82.99
78673;BME280;67988;60.086;30.354;2023-02-28T03:46:44;100773.38;;;0.76;82.94
78673;BME280;67988;60.086;30.354;2023-02-28T03:49:16;100767.19;;;0.77;83.32
78673;BME280;67988;60.086;30.354;2023-02-28T03:51:46;100771.34;;;0.82;82.70
78673;BME280;67988;60.086;30.354;2023-02-28T03:54:18;100758.34;;;0.81;82.82
78673;BME280;67988;60.086;30.354;2023-02-28T03:56:50;100774.31;;;0.73;82.75
78673;BME280;67988;60.086;30.354;2023-02-28T03:59:22;100743.56;;;0.55;83.03
78673;BME280;67988;60.086;30.354;2023-02-28T04:01:52;100775.63;;;0.62;83.07
78673;BME280;67988;60.086;30.354;2023-02-28T04:04:21;100784.84;;;0.49;83.58
78673;BME280;67988;60.086;30.354;2023-02-28T04:06:51;100771.47;;;0.56;83.17
78673;BME280;67988;60.086;30.354;2023-02-28T04:09:19;100789.13;;;0.50;83.31
78673;BME280;67988;60.086;30.354;2023-02-28T04:11:50;100743.38;;;0.36;82.84
78673;BME280;67988;60.086;30.354;2023-02-28T04:14:18;100775.53;;;0.40;83.19
78673;BME280;67988;60.086;30.354;2023-02-28T04:16:45;100772.44;;;0.29;83.70
78673;BME280;67988;60.086;30.354;2023-02-28T04:19:13;100778.31;;;0.35;83.50
78673;BME280;67988;60.086;30.354;2023-02-28T04:21:41;100771.81;;;0.47;82.86
78673;BME280;67988;60.086;30.354;2023-02-28T04:24:12;100788.09;;;0.30;83.00
78673;BME280;67988;60.086;30.354;2023-02-28T04:26:42;100763.31;;;0.16;83.54
78673;BME280;67988;60.086;30.354;2023-02-28T04:29:10;100765.94;;;0.16;83.27
78673;BME280;67988;60.086;30.354;2023-02-28T04:31:37;100770.25;;;0.17;83.40
78673;BME280;67988;60.086;30.354;2023-02-28T04:34:04;100761.44;;;0.19;83.35
78673;BME280;67988;60.086;30.354;2023-02-28T04:36:31;100766.66;;;0.19;83.26
78673;BME280;67988;60.086;30.354;2023-02-28T04:38:58;100757.53;;;0.06;83.45
78673;BME280;67988;60.086;30.354;2023-02-28T04:41:27;100759.84;;;0.15;82.95
78673;BME280;67988;60.086;30.354;2023-02-28T04:43:54;100753.06;;;0.10;83.34
78673;BME280;67988;60.086;30.354;2023-02-28T04:46:21;100747.22;;;0.02;83.50
78673;BME280;67988;60.086;30.354;2023-02-28T04:48:49;100763.91;;;-0.01;83.73
78673;BME280;67988;60.086;30.354;2023-02-28T04:51:17;100784.69;;;0.02;83.62
78673;BME280;67988;60.086;30.354;2023-02-28T04:53:45;100781.50;;;-0.06;83.79
78673;BME280;67988;60.086;30.354;2023-02-28T04:56:14;100774.44;;;-0.04;83.81
78673;BME280;67988;60.086;30.354;2023-02-28T04:58:43;100774.25;;;0.02;83.84
78673;BME280;67988;60.086;30.354;2023-02-28T05:01:21;100776.69;;;0.07;83.53
78673;BME280;67988;60.086;30.354;2023-02-28T05:03:50;100766.22;;;0.07;83.72
78673;BME280;67988;60.086;30.354;2023-02-28T05:06:18;100773.88;;;0.13;83.37
78673;BME280;67988;60.086;30.354;2023-02-28T05:08:45;100784.66;;;0.28;83.17
78673;BME280;67988;60.086;30.354;2023-02-28T05:11:16;100783.81;;;0.28;82.84
78673;BME280;67988;60.086;30.354;2023-02-28T05:13:45;100785.47;;;0.30;82.79
78673;BME280;67988;60.086;30.354;2023-02-28T05:16:12;100772.19;;;0.36;82.88
78673;BME280;67988;60.086;30.354;2023-02-28T05:18:39;100764.53;;;0.30;82.72
78673;BME280;67988;60.086;30.354;2023-02-28T05:21:22;100772.47;;;0.27;82.91
78673;BME280;67988;60.086;30.354;2023-02-28T05:23:50;100771.56;;;0.28;83.03
78673;BME280;67988;60.086;30.354;2023-02-28T05:26:17;100786.28;;;0.32;83.58
78673;BME280;67988;60.086;30.354;2023-02-28T05:28:46;100788.25;;;0.26;84.07
78673;BME280;67988;60.086;30.354;2023-02-28T05:31:13;100803.06;;;0.27;84.60
78673;BME280;67988;60.086;30.354;2023-02-28T05:33:40;100817.25;;;0.20;84.60
78673;BME280;67988;60.086;30.354;2023-02-28T05:36:08;100811.84;;;0.24;84.90
78673;BME280;67988;60.086;30.354;2023-02-28T05:38:35;100831.84;;;0.27;85.12
78673;BME280;67988;60.086;30.354;2023-02-28T05:41:05;100857.84;;;0.31;84.87
78673;BME280;67988;60.086;30.354;2023-02-28T05:43:32;100875.41;;;0.28;85.42
78673;BME280;67988;60.086;30.354;2023-02-28T05:46:02;100828.66;;;0.17;85.77
78673;BME280;67988;60.086;30.354;2023-02-28T05:48:29;100835.31;;;0.52;85.35
78673;BME280;67988;60.086;30.354;2023-02-28T05:50:57;100851.72;;;0.57;84.95
78673;BME280;67988;60.086;30.354;2023-02-28T05:53:24;100847.22;;;0.61;84.08
78673;BME280;67988;60.086;30.354;2023-02-28T05:55:51;100853.97;;;0.68;84.18
78673;BME280;67988;60.086;30.354;2023-02-28T05:58:18;100857.97;;;0.78;84.14
78673;BME280;67988;60.086;30.354;2023-02-28T06:00:45;100795.31;;;0.49;83.90
78673;BME280;67988;60.086;30.354;2023-02-28T06:03:14;100863.88;;;0.83;83.64
78673;BME280;67988;60.086;30.354;2023-02-28T06:05:41;100849.78;;;0.87;83.07
78673;BME280;67988;60.086;30.354;2023-02-28T06:08:08;100851.88;;;0.77;81.20
78673;BME280;67988;60.086;30.354;2023-02-28T06:10:35;100853.09;;;0.92;80.25
78673;BME280;67988;60.086;30.354;2023-02-28T06:13:02;100848.09;;;0.86;76.24
78673;BME280;67988;60.086;30.354;2023-02-28T06:15:31;100850.41;;;0.94;75.18
78673;BME280;67988;60.086;30.354;2023-02-28T06:17:58;100862.34;;;1.02;74.70
78673;BME280;67988;60.086;30.354;2023-02-28T06:20:27;100872.69;;;1.05;73.03
78673;BME280;67988;60.086;30.354;2023-02-28T06:22:55;100864.06;;;1.03;71.83
78673;BME280;67988;60.086;30.354;2023-02-28T06:25:24;100853.78;;;0.97;71.53
78673;BME280;67988;60.086;30.354;2023-02-28T06:27:51;100871.28;;;0.97;71.79
78673;BME280;67988;60.086;30.354;2023-02-28T06:30:18;100885.06;;;1.02;71.05
78673;BME280;67988;60.086;30.354;2023-02-28T06:32:49;100894.72;;;1.00;71.43
78673;BME280;67988;60.086;30.354;2023-02-28T06:35:16;100913.59;;;1.09;71.42
78673;BME280;67988;60.086;30.354;2023-02-28T06:37:44;100909.72;;;0.96;71.18
78673;BME280;67988;60.086;30.354;2023-02-28T06:40:13;100918.22;;;1.03;70.30
78673;BME280;67988;60.086;30.354;2023-02-28T06:42:40;100941.63;;;1.07;69.06
78673;BME280;67988;60.086;30.354;2023-02-28T06:45:08;100930.28;;;1.07;69.05
78673;BME280;67988;60.086;30.354;2023-02-28T06:47:35;100942.41;;;1.09;68.42
78673;BME280;67988;60.086;30.354;2023-02-28T06:50:03;100966.00;;;1.09;65.53
78673;BME280;67988;60.086;30.354;2023-02-28T06:52:30;100981.25;;;0.98;63.38
78673;BME280;67988;60.086;30.354;2023-02-28T06:54:58;100983.16;;;0.93;62.69
78673;BME280;67988;60.086;30.354;2023-02-28T06:57:27;100977.22;;;0.88;60.76
78673;BME280;67988;60.086;30.354;2023-02-28T06:59:57;100974.78;;;0.82;60.29
78673;BME280;67988;60.086;30.354;2023-02-28T07:02:24;100960.09;;;0.78;58.85
78673;BME280;67988;60.086;30.354;2023-02-28T07:04:51;100971.22;;;0.84;57.83
78673;BME280;67988;60.086;30.354;2023-02-28T07:07:18;100966.81;;;0.87;57.42
78673;BME280;67988;60.086;30.354;2023-02-28T07:09:45;100951.09;;;0.87;56.79
78673;BME280;67988;60.086;30.354;2023-02-28T07:12:13;100953.63;;;0.63;55.25
78673;BME280;67988;60.086;30.354;2023-02-28T07:14:40;100960.59;;;0.89;56.15
78673;BME280;67988;60.086;30.354;2023-02-28T07:17:07;100958.19;;;0.83;54.21
78673;BME280;67988;60.086;30.354;2023-02-28T07:19:34;100952.28;;;0.76;54.97
78673;BME280;67988;60.086;30.354;2023-02-28T07:22:01;100951.84;;;0.90;53.13
78673;BME280;67988;60.086;30.354;2023-02-28T07:24:29;100916.47;;;0.77;51.68
78673;BME280;67988;60.086;30.354;2023-02-28T07:26:56;100965.59;;;0.97;52.77
78673;BME280;67988;60.086;30.354;2023-02-28T07:29:24;100974.47;;;0.93;53.08
78673;BME280;67988;60.086;30.354;2023-02-28T07:31:51;100972.91;;;0.87;52.84
78673;BME280;67988;60.086;30.354;2023-02-28T07:34:18;100979.84;;;0.88;52.25
78673;BME280;67988;60.086;30.354;2023-02-28T07:36:45;100965.75;;;0.92;52.56
78673;BME280;67988;60.086;30.354;2023-02-28T07:39:12;100972.66;;;0.93;52.93
78673;BME280;67988;60.086;30.354;2023-02-28T07:41:39;100961.78;;;0.80;52.17
78673;BME280;67988;60.086;30.354;2023-02-28T07:44:09;100976.44;;;0.86;50.02
78673;BME280;67988;60.086;30.354;2023-02-28T07:46:37;100909.44;;;0.54;50.51
78673;BME280;67988;60.086;30.354;2023-02-28T07:49:05;100966.00;;;0.84;50.13
78673;BME280;67988;60.086;30.354;2023-02-28T07:51:32;100964.78;;;0.95;50.56
78673;BME280;67988;60.086;30.354;2023-02-28T07:53:59;100955.47;;;0.86;49.55
78673;BME280;67988;60.086;30.354;2023-02-28T07:56:26;100970.13;;;0.92;48.69
78673;BME280;67988;60.086;30.354;2023-02-28T07:58:53;100965.28;;;0.79;46.56
78673;BME280;67988;60.086;30.354;2023-02-28T08:01:20;100963.59;;;0.78;47.87
78673;BME280;67988;60.086;30.354;2023-02-28T08:03:49;100965.19;;;0.82;47.97
78673;BME280;67988;60.086;30.354;2023-02-28T08:06:17;100970.38;;;0.84;46.35
78673;BME280;67988;60.086;30.354;2023-02-28T08:08:45;100962.97;;;0.97;47.09
78673;BME280;67988;60.086;30.354;2023-02-28T08:11:12;100974.91;;;1.04;45.83
78673;BME280;67988;60.086;30.354;2023-02-28T08:13:39;100981.84;;;1.06;45.89
78673;BME280;67988;60.086;30.354;2023-02-28T08:16:07;100975.00;;;1.02;44.34
78673;BME280;67988;60.086;30.354;2023-02-28T08:18:34;100979.38;;;1.26;43.66
78673;BME280;67988;60.086;30.354;2023-02-28T08:21:07;100993.00;;;1.11;44.11
78673;BME280;67988;60.086;30.354;2023-02-28T08:23:34;100978.75;;;1.20;44.48
78673;BME280;67988;60.086;30.354;2023-02-28T08:26:02;100981.09;;;1.27;44.05
78673;BME280;67988;60.086;30.354;2023-02-28T08:28:29;100969.53;;;1.08;43.94
78673;BME280;67988;60.086;30.354;2023-02-28T08:30:57;100993.88;;;1.12;42.53
78673;BME280;67988;60.086;30.354;2023-02-28T08:33:25;100987.03;;;1.08;43.03
78673;BME280;67988;60.086;30.354;2023-02-28T08:35:53;100990.91;;;0.96;42.96
78673;BME280;67988;60.086;30.354;2023-02-28T08:38:22;101001.50;;;0.93;43.81
78673;BME280;67988;60.086;30.354;2023-02-28T08:40:49;101013.53;;;0.99;43.49
78673;BME280;67988;60.086;30.354;2023-02-28T08:43:16;101013.31;;;1.05;42.94
78673;BME280;67988;60.086;30.354;2023-02-28T08:45:43;101012.53;;;1.03;43.51
78673;BME280;67988;60.086;30.354;2023-02-28T08:48:10;101017.66;;;1.06;43.60
78673;BME280;67988;60.086;30.354;2023-02-28T08:50:37;101008.56;;;1.16;43.62
78673;BME280;67988;60.086;30.354;2023-02-28T08:53:04;101018.88;;;1.20;43.19
78673;BME280;67988;60.086;30.354;2023-02-28T08:55:32;101023.50;;;1.14;41.18
78673;BME280;67988;60.086;30.354;2023-02-28T08:57:59;101025.59;;;1.29;42.05
78673;BME280;67988;60.086;30.354;2023-02-28T09:00:26;101022.94;;;1.31;42.97
78673;BME280;67988;60.086;30.354;2023-02-28T09:02:53;101021.94;;;1.33;42.43
78673;BME280;67988;60.086;30.354;2023-02-28T09:05:20;101011.84;;;1.47;40.99
78673;BME280;67988;60.086;30.354;2023-02-28T09:07:49;101026.94;;;1.64;41.37
78673;BME280;67988;60.086;30.354;2023-02-28T09:10:16;101012.34;;;1.80;41.20
78673;BME280;67988;60.086;30.354;2023-02-28T09:12:45;101015.22;;;1.97;41.51
78673;BME280;67988;60.086;30.354;2023-02-28T09:15:12;101030.28;;;2.37;40.53
78673;BME280;67988;60.086;30.354;2023-02-28T09:17:39;101017.34;;;2.76;39.56
78673;BME280;67988;60.086;30.354;2023-02-28T09:20:07;101027.09;;;2.73;38.75
78673;BME280;67988;60.086;30.354;2023-02-28T09:22:35;101020.72;;;3.00;38.93
78673;BME280;67988;60.086;30.354;2023-02-28T09:25:02;101027.38;;;3.09;38.92
78673;BME280;67988;60.086;30.354;2023-02-28T09:27:29;101027.88;;;2.97;39.14
78673;BME280;67988;60.086;30.354;2023-02-28T09:29:57;101028.97;;;2.71;39.80
78673;BME280;67988;60.086;30.354;2023-02-28T09:32:24;101031.94;;;2.83;39.11
78673;BME280;67988;60.086;30.354;2023-02-28T09:34:51;101032.06;;;2.80;39.30
78673;BME280;67988;60.086;30.354;2023-02-28T09:37:18;101027.78;;;3.00;39.19
78673;BME280;67988;60.086;30.354;2023-02-28T09:39:45;101040.00;;;3.21;38.46
78673;BME280;67988;60.086;30.354;2023-02-28T09:42:20;101034.22;;;3.13;37.90
78673;BME280;67988;60.086;30.354;2023-02-28T09:44:49;101041.50;;;3.67;36.85
78673;BME280;67988;60.086;30.354;2023-02-28T09:47:27;101039.44;;;3.73;36.86
78673;BME280;67988;60.086;30.354;2023-02-28T09:49:58;101042.06;;;3.73;37.06
78673;BME280;67988;60.086;30.354;2023-02-28T09:52:29;101045.97;;;3.45;37.89
78673;BME280;67988;60.086;30.354;2023-02-28T09:55:00;101042.19;;;3.31;37.48
78673;BME280;67988;60.086;30.354;2023-02-28T09:57:32;101049.81;;;2.95;38.15
78673;BME280;67988;60.086;30.354;2023-02-28T10:00:07;101050.16;;;2.88;38.62
78673;BME280;67988;60.086;30.354;2023-02-28T10:03:01;101043.97;;;2.89;39.13
78673;BME280;67988;60.086;30.354;2023-02-28T10:05:34;101049.72;;;2.77;38.71
78673;BME280;67988;60.086;30.354;2023-02-28T10:08:08;101068.75;;;2.62;38.66
78673;BME280;67988;60.086;30.354;2023-02-28T10:10:40;101066.34;;;2.56;39.35
78673;BME280;67988;60.086;30.354;2023-02-28T10:13:15;101068.53;;;2.44;39.36
78673;BME280;67988;60.086;30.354;2023-02-28T10:15:45;101075.75;;;2.39;38.24
78673;BME280;67988;60.086;30.354;2023-02-28T10:18:21;101073.59;;;2.27;38.45
78673;BME280;67988;60.086;30.354;2023-02-28T10:20:53;101049.41;;;1.96;37.41
78673;BME280;67988;60.086;30.354;2023-02-28T10:23:24;101073.72;;;2.01;37.44
78673;BME280;67988;60.086;30.354;2023-02-28T10:25:55;101068.22;;;2.07;37.53
78673;BME280;67988;60.086;30.354;2023-02-28T10:28:25;101073.81;;;2.21;37.64
78673;BME280;67988;60.086;30.354;2023-02-28T10:30:53;101054.88;;;2.35;37.46
78673;BME280;67988;60.086;30.354;2023-02-28T10:33:24;101060.09;;;2.36;35.73
78673;BME280;67988;60.086;30.354;2023-02-28T10:35:52;101074.91;;;2.16;36.10
78673;BME280;67988;60.086;30.354;2023-02-28T10:38:22;101089.38;;;2.02;35.38
78673;BME280;67988;60.086;30.354;2023-02-28T10:40:49;101095.78;;;1.71;32.65
78673;BME280;67988;60.086;30.354;2023-02-28T10:43:21;101083.00;;;1.61;31.49
78673;BME280;67988;60.086;30.354;2023-02-28T10:45:56;101097.06;;;1.59;31.23
78673;BME280;67988;60.086;30.354;2023-02-28T10:48:36;101087.56;;;1.56;30.49
78673;BME280;67988;60.086;30.354;2023-02-28T10:51:04;101091.56;;;1.66;31.21
78673;BME280;67988;60.086;30.354;2023-02-28T10:53:46;101084.38;;;1.72;31.05
78673;BME280;67988;60.086;30.354;2023-02-28T10:56:17;101089.91;;;1.64;31.34
78673;BME280;67988;60.086;30.354;2023-02-28T10:58:52;101121.84;;;1.75;30.86
78673;BME280;67988;60.086;30.354;2023-02-28T11:01:22;101113.84;;;1.80;31.04
78673;BME280;67988;60.086;30.354;2023-02-28T11:03:52;101110.16;;;1.85;31.50
78673;BME280;67988;60.086;30.354;2023-02-28T11:06:20;101082.47;;;1.77;31.90
78673;BME280;67988;60.086;30.354;2023-02-28T11:08:50;101097.28;;;1.78;31.52
78673;BME280;67988;60.086;30.354;2023-02-28T11:11:19;101085.03;;;1.78;29.71
78673;BME280;67988;60.086;30.354;2023-02-28T11:13:46;101093.63;;;1.82;28.36
78673;BME280;67988;60.086;30.354;2023-02-28T11:16:15;101077.25;;;1.52;26.45
78673;BME280;67988;60.086;30.354;2023-02-28T11:18:47;101099.28;;;1.71;26.74
78673;BME280;67988;60.086;30.354;2023-02-28T11:21:19;101097.47;;;1.73;26.69
78673;BME280;67988;60.086;30.354;2023-02-28T11:23:49;101100.09;;;1.73;28.24
78673;BME280;67988;60.086;30.354;2023-02-28T11:26:35;101114.91;;;1.74;25.44
78673;BME280;67988;60.086;30.354;2023-02-28T11:29:10;101092.03;;;1.78;25.73
78673;BME280;67988;60.086;30.354;2023-02-28T11:31:37;101068.59;;;1.73;26.40
78673;BME280;67988;60.086;30.354;2023-02-28T11:34:23;101083.75;;;1.90;26.28
78673;BME280;67988;60.086;30.354;2023-02-28T11:36:54;101064.50;;;1.89;26.72
78673;BME280;67988;60.086;30.354;2023-02-28T11:39:23;101086.03;;;2.22;26.43
78673;BME280;67988;60.086;30.354;2023-02-28T11:42:02;101087.13;;;2.17;26.25
78673;BME280;67988;60.086;30.354;2023-02-28T11:44:43;101090.63;;;1.92;26.10
78673;BME280;67988;60.086;30.354;2023-02-28T11:47:17;101087.69;;;2.01;25.45
78673;BME280;67988;60.086;30.354;2023-02-28T11:49:54;101081.91;;;1.92;26.08
78673;BME280;67988;60.086;30.354;2023-02-28T11:52:35;101095.22;;;2.10;26.40
78673;BME280;67988;60.086;30.354;2023-02-28T11:55:14;101095.78;;;1.95;24.64
78673;BME280;67988;60.086;30.354;2023-02-28T11:58:04;101095.31;;;1.84;24.83
78673;BME280;67988;60.086;30.354;2023-02-28T12:00:40;101079.41;;;1.89;24.95
78673;BME280;67988;60.086;30.354;2023-02-28T12:03:23;101099.53;;;1.88;24.51
78673;BME280;67988;60.086;30.354;2023-02-28T12:06:01;101062.78;;;1.88;24.91
78673;BME280;67988;60.086;30.354;2023-02-28T12:08:47;101091.13;;;2.02;24.43
78673;BME280;67988;60.086;30.354;2023-02-28T12:11:26;101092.59;;;2.34;24.69
78673;BME280;67988;60.086;30.354;2023-02-28T12:13:58;101096.53;;;2.45;24.18
78673;BME280;67988;60.086;30.354;2023-02-28T12:16:47;101097.34;;;2.46;24.67
78673;BME280;67988;60.086;30.354;2023-02-28T12:19:21;101084.31;;;2.44;25.14
78673;BME280;67988;60.086;30.354;2023-02-28T12:22:06;101093.97;;;2.66;25.86
78673;BME280;67988;60.086;30.354;2023-02-28T12:24:53;101098.53;;;3.66;25.09
78673;BME280;67988;60.086;30.354;2023-02-28T12:27:23;101093.78;;;4.88;22.73
78673;BME280;67988;60.086;30.354;2023-02-28T12:29:57;101106.75;;;6.13;21.83
78673;BME280;67988;60.086;30.354;2023-02-28T12:32:29;101087.88;;;6.68;21.14
78673;BME280;67988;60.086;30.354;2023-02-28T12:35:01;101083.56;;;8.01;21.05
78673;BME280;67988;60.086;30.354;2023-02-28T12:37:32;101077.97;;;8.62;19.88
78673;BME280;67988;60.086;30.354;2023-02-28T12:40:04;101093.69;;;7.94;19.59
78673;BME280;67988;60.086;30.354;2023-02-28T12:42:37;101105.78;;;6.94;20.53
78673;BME280;67988;60.086;30.354;2023-02-28T12:45:10;101100.66;;;7.81;20.43
78673;BME280;67988;60.086;30.354;2023-02-28T12:47:42;101112.00;;;7.09;20.37
78673;BME280;67988;60.086;30.354;2023-02-28T12:50:11;101101.69;;;6.73;20.46
78673;BME280;67988;60.086;30.354;2023-02-28T12:52:44;101046.84;;;4.42;22.11
78673;BME280;67988;60.086;30.354;2023-02-28T12:55:20;101135.97;;;3.73;23.19
78673;BME280;67988;60.086;30.354;2023-02-28T12:57:58;101114.84;;;2.90;24.17
78673;BME280;67988;60.086;30.354;2023-02-28T13:00:33;101138.00;;;2.36;25.15
78673;BME280;67988;60.086;30.354;2023-02-28T13:03:19;101122.78;;;2.22;25.81
78673;BME280;67988;60.086;30.354;2023-02-28T13:06:34;101101.53;;;2.05;25.70
78673;BME280;67988;60.086;30.354;2023-02-28T13:09:12;101111.47;;;2.20;26.20
78673;BME280;67988;60.086;30.354;2023-02-28T13:11:44;101125.31;;;2.24;25.73
78673;BME280;67988;60.086;30.354;2023-02-28T13:14:29;101110.19;;;3.19;24.82
78673;BME280;67988;60.086;30.354;2023-02-28T13:17:00;101109.97;;;4.43;23.42